sensor_id;sensor_type;location;lat;lon;timestamp;P1;durP1;ratioP1;P2;durP2;ratioP2
72949;SDS011;64868;45.710;9.590;2022-11-04T00:00:11;3.80;;;0.82;;
72949;SDS011;64868;45.710;9.590;2022-11-04T00:02:37;3.55;;;0.95;;
72949;SDS011;64868;45.710;9.590;2022-11-04T00:05:02;3.77;;;0.80;;
72949;SDS011;64868;45.710;9.590;2022-11-04T00:07:27;3.88;;;0.80;;
72949;SDS011;64868;45.710;9.590;2022-11-04T00:10:11;3.53;;;1.00;;
72949;SDS011;64868;45.710;9.590;2022-11-04T00:12:36;5.45;;;0.95;;
72949;SDS011;64868;45.710;9.590;2022-11-04T00:15:01;3.63;;;1.10;;
72949;SDS011;64868;45.710;9.590;2022-11-04T00:17:47;3.70;;;1.00;;
72949;SDS011;64868;45.710;9.590;2022-11-04T00:20:12;3.17;;;0.80;;
72949;SDS011;64868;45.710;9.590;2022-11-04T00:22:56;2.55;;;0.63;;
72949;SDS011;64868;45.710;9.590;2022-11-04T00:25:39;3.17;;;0.70;;
72949;SDS011;64868;45.710;9.590;2022-11-04T00:28:23;4.18;;;0.73;;
72949;SDS011;64868;45.710;9.590;2022-11-04T00:31:07;3.20;;;0.90;;
72949;SDS011;64868;45.710;9.590;2022-11-04T00:33:52;1.85;;;0.65;;
72949;SDS011;64868;45.710;9.590;2022-11-04T00:36:17;2.08;;;0.70;;
72949;SDS011;64868;45.710;9.590;2022-11-04T00:38:43;2.53;;;0.65;;
72949;SDS011;64868;45.710;9.590;2022-11-04T00:41:08;2.40;;;0.70;;
72949;SDS011;64868;45.710;9.590;2022-11-04T00:43:54;2.58;;;0.70;;
72949;SDS011;64868;45.710;9.590;2022-11-04T00:46:20;4.47;;;0.80;;
72949;SDS011;64868;45.710;9.590;2022-11-04T00:48:45;2.40;;;0.60;;
72949;SDS011;64868;45.710;9.590;2022-11-04T00:51:10;2.57;;;0.53;;
72949;SDS011;64868;45.710;9.590;2022-11-04T00:53:35;3.33;;;0.60;;
72949;SDS011;64868;45.710;9.590;2022-11-04T00:56:00;2.00;;;0.50;;
72949;SDS011;64868;45.710;9.590;2022-11-04T00:58:27;2.57;;;0.70;;
72949;SDS011;64868;45.710;9.590;2022-11-04T01:00:52;1.92;;;0.55;;
72949;SDS011;64868;45.710;9.590;2022-11-04T01:03:17;2.43;;;0.50;;
72949;SDS011;64868;45.710;9.590;2022-11-04T01:05:42;2.20;;;0.60;;
72949;SDS011;64868;45.710;9.590;2022-11-04T01:08:08;1.97;;;0.40;;
72949;SDS011;64868;45.710;9.590;2022-11-04T01:10:34;4.53;;;0.50;;
72949;SDS011;64868;45.710;9.590;2022-11-04T01:12:59;1.73;;;0.50;;
72949;SDS011;64868;45.710;9.590;2022-11-04T01:15:24;2.20;;;0.50;;
72949;SDS011;64868;45.710;9.590;2022-11-04T01:17:50;2.00;;;0.60;;
72949;SDS011;64868;45.710;9.590;2022-11-04T01:20:15;2.25;;;0.75;;
72949;SDS011;64868;45.710;9.590;2022-11-04T01:22:41;1.65;;;0.50;;
72949;SDS011;64868;45.710;9.590;2022-11-04T01:25:06;2.22;;;0.47;;
72949;SDS011;64868;45.710;9.590;2022-11-04T01:27:32;2.35;;;0.52;;
72949;SDS011;64868;45.710;9.590;2022-11-04T01:29:57;1.60;;;0.50;;
72949;SDS011;64868;45.710;9.590;2022-11-04T01:32:23;2.08;;;0.57;;
72949;SDS011;64868;45.710;9.590;2022-11-04T01:34:48;1.63;;;0.40;;
72949;SDS011;64868;45.710;9.590;2022-11-04T01:37:13;2.43;;;0.50;;
72949;SDS011;64868;45.710;9.590;2022-11-04T01:39:38;2.88;;;0.60;;
72949;SDS011;64868;45.710;9.590;2022-11-04T01:42:04;1.70;;;0.40;;
72949;SDS011;64868;45.710;9.590;2022-11-04T01:47:28;1.92;;;0.52;;
72949;SDS011;64868;45.710;9.590;2022-11-04T01:49:53;3.10;;;0.55;;
72949;SDS011;64868;45.710;9.590;2022-11-04T01:52:28;2.92;;;0.60;;
72949;SDS011;64868;45.710;9.590;2022-11-04T01:54:54;2.78;;;0.40;;
72949;SDS011;64868;45.710;9.590;2022-11-04T01:57:27;1.60;;;0.47;;
72949;SDS011;64868;45.710;9.590;2022-11-04T01:59:54;2.63;;;0.60;;
72949;SDS011;64868;45.710;9.590;2022-11-04T02:02:22;2.58;;;0.57;;
72949;SDS011;64868;45.710;9.590;2022-11-04T02:04:47;1.30;;;0.30;;
72949;SDS011;64868;45.710;9.590;2022-11-04T02:07:12;2.22;;;0.57;;
72949;SDS011;64868;45.710;9.590;2022-11-04T02:09:38;2.88;;;0.70;;
72949;SDS011;64868;45.710;9.590;2022-11-04T02:12:04;3.58;;;0.70;;
72949;SDS011;64868;45.710;9.590;2022-11-04T02:14:48;4.47;;;0.82;;
72949;SDS011;64868;45.710;9.590;2022-11-04T02:30:14;2.25;;;0.55;;
72949;SDS011;64868;45.710;9.590;2022-11-04T02:40:30;2.08;;;0.50;;
72949;SDS011;64868;45.710;9.590;2022-11-04T02:43:00;2.47;;;0.60;;
72949;SDS011;64868;45.710;9.590;2022-11-04T02:45:46;2.15;;;0.45;;
72949;SDS011;64868;45.710;9.590;2022-11-04T02:48:15;3.13;;;0.63;;
72949;SDS011;64868;45.710;9.590;2022-11-04T02:53:44;2.83;;;0.70;;
72949;SDS011;64868;45.710;9.590;2022-11-04T02:56:11;1.75;;;0.47;;
72949;SDS011;64868;45.710;9.590;2022-11-04T02:58:45;1.83;;;0.57;;
72949;SDS011;64868;45.710;9.590;2022-11-04T03:01:12;2.28;;;0.50;;
72949;SDS011;64868;45.710;9.590;2022-11-04T03:03:39;3.45;;;0.60;;
72949;SDS011;64868;45.710;9.590;2022-11-04T03:06:07;2.70;;;0.55;;
72949;SDS011;64868;45.710;9.590;2022-11-04T03:08:34;3.40;;;0.65;;
72949;SDS011;64868;45.710;9.590;2022-11-04T03:11:05;3.30;;;0.50;;
72949;SDS011;64868;45.710;9.590;2022-11-04T03:13:45;1.70;;;0.43;;
72949;SDS011;64868;45.710;9.590;2022-11-04T03:16:13;1.20;;;0.40;;
72949;SDS011;64868;45.710;9.590;2022-11-04T03:21:20;1.80;;;0.40;;
72949;SDS011;64868;45.710;9.590;2022-11-04T03:23:46;2.50;;;0.50;;
72949;SDS011;64868;45.710;9.590;2022-11-04T03:26:21;1.95;;;0.60;;
72949;SDS011;64868;45.710;9.590;2022-11-04T03:31:27;2.03;;;0.50;;
72949;SDS011;64868;45.710;9.590;2022-11-04T03:33:54;3.05;;;0.50;;
72949;SDS011;64868;45.710;9.590;2022-11-04T03:36:20;3.00;;;0.50;;
72949;SDS011;64868;45.710;9.590;2022-11-04T03:38:46;1.45;;;0.38;;
72949;SDS011;64868;45.710;9.590;2022-11-04T03:41:17;2.63;;;0.60;;
72949;SDS011;64868;45.710;9.590;2022-11-04T03:43:43;2.30;;;0.73;;
72949;SDS011;64868;45.710;9.590;2022-11-04T03:46:08;2.95;;;0.77;;
72949;SDS011;64868;45.710;9.590;2022-11-04T03:48:34;3.70;;;1.00;;
72949;SDS011;64868;45.710;9.590;2022-11-04T03:51:00;3.80;;;1.20;;
72949;SDS011;64868;45.710;9.590;2022-11-04T03:53:25;3.22;;;0.82;;
72949;SDS011;64868;45.710;9.590;2022-11-04T04:00:49;2.60;;;0.43;;
72949;SDS011;64868;45.710;9.590;2022-11-04T04:03:17;2.47;;;0.40;;
72949;SDS011;64868;45.710;9.590;2022-11-04T04:05:55;1.63;;;0.20;;
72949;SDS011;64868;45.710;9.590;2022-11-04T04:19:03;1.65;;;0.20;;
72949;SDS011;64868;45.710;9.590;2022-11-04T04:21:34;0.80;;;0.20;;
72949;SDS011;64868;45.710;9.590;2022-11-04T04:24:01;0.98;;;0.20;;
72949;SDS011;64868;45.710;9.590;2022-11-04T04:26:47;1.35;;;0.25;;
72949;SDS011;64868;45.710;9.590;2022-11-04T04:29:31;0.32;;;0.10;;
72949;SDS011;64868;45.710;9.590;2022-11-04T04:31:57;2.03;;;0.32;;
72949;SDS011;64868;45.710;9.590;2022-11-04T04:34:25;2.67;;;0.50;;
72949;SDS011;64868;45.710;9.590;2022-11-04T04:39:28;3.05;;;0.80;;
72949;SDS011;64868;45.710;9.590;2022-11-04T04:42:14;1.50;;;0.38;;
72949;SDS011;64868;45.710;9.590;2022-11-04T04:44:57;1.55;;;0.35;;
72949;SDS011;64868;45.710;9.590;2022-11-04T04:47:36;0.63;;;0.20;;
72949;SDS011;64868;45.710;9.590;2022-11-04T04:50:03;0.57;;;0.22;;
72949;SDS011;64868;45.710;9.590;2022-11-04T04:52:30;1.90;;;0.28;;
72949;SDS011;64868;45.710;9.590;2022-11-04T04:54:56;2.17;;;0.20;;
72949;SDS011;64868;45.710;9.590;2022-11-04T04:57:21;1.90;;;0.43;;
72949;SDS011;64868;45.710;9.590;2022-11-04T04:59:46;0.55;;;0.10;;
72949;SDS011;64868;45.710;9.590;2022-11-04T05:02:12;2.67;;;0.20;;
72949;SDS011;64868;45.710;9.590;2022-11-04T05:04:37;0.93;;;0.22;;
72949;SDS011;64868;45.710;9.590;2022-11-04T05:07:02;0.37;;;0.20;;
72949;SDS011;64868;45.710;9.590;2022-11-04T05:09:27;1.03;;;0.20;;
72949;SDS011;64868;45.710;9.590;2022-11-04T05:11:53;0.95;;;0.30;;
72949;SDS011;64868;45.710;9.590;2022-11-04T05:14:18;0.97;;;0.20;;
72949;SDS011;64868;45.710;9.590;2022-11-04T05:16:43;1.75;;;0.13;;
72949;SDS011;64868;45.710;9.590;2022-11-04T05:19:08;1.00;;;0.20;;
72949;SDS011;64868;45.710;9.590;2022-11-04T05:21:34;0.98;;;0.32;;
72949;SDS011;64868;45.710;9.590;2022-11-04T05:23:59;2.33;;;0.30;;
72949;SDS011;64868;45.710;9.590;2022-11-04T05:26:24;1.53;;;0.20;;
72949;SDS011;64868;45.710;9.590;2022-11-04T05:28:50;1.10;;;0.28;;
72949;SDS011;64868;45.710;9.590;2022-11-04T05:31:15;1.45;;;0.30;;
72949;SDS011;64868;45.710;9.590;2022-11-04T05:33:40;2.70;;;0.30;;
72949;SDS011;64868;45.710;9.590;2022-11-04T05:36:10;1.27;;;0.28;;
72949;SDS011;64868;45.710;9.590;2022-11-04T05:38:35;0.80;;;0.22;;
72949;SDS011;64868;45.710;9.590;2022-11-04T05:41:01;1.00;;;0.30;;
72949;SDS011;64868;45.710;9.590;2022-11-04T05:43:26;2.45;;;0.20;;
72949;SDS011;64868;45.710;9.590;2022-11-04T05:45:52;1.25;;;0.32;;
72949;SDS011;64868;45.710;9.590;2022-11-04T05:48:17;0.97;;;0.20;;
72949;SDS011;64868;45.710;9.590;2022-11-04T05:50:42;0.47;;;0.13;;
72949;SDS011;64868;45.710;9.590;2022-11-04T05:53:07;0.53;;;0.10;;
72949;SDS011;64868;45.710;9.590;2022-11-04T05:55:33;1.17;;;0.10;;
72949;SDS011;64868;45.710;9.590;2022-11-04T05:57:58;1.73;;;0.30;;
72949;SDS011;64868;45.710;9.590;2022-11-04T06:00:24;3.10;;;0.67;;
72949;SDS011;64868;45.710;9.590;2022-11-04T06:02:49;2.00;;;0.50;;
72949;SDS011;64868;45.710;9.590;2022-11-04T06:05:14;3.22;;;0.70;;
72949;SDS011;64868;45.710;9.590;2022-11-04T06:07:39;3.90;;;0.70;;
72949;SDS011;64868;45.710;9.590;2022-11-04T06:10:05;1.65;;;0.40;;
72949;SDS011;64868;45.710;9.590;2022-11-04T06:12:30;1.30;;;0.28;;
72949;SDS011;64868;45.710;9.590;2022-11-04T06:14:56;0.93;;;0.32;;
72949;SDS011;64868;45.710;9.590;2022-11-04T06:17:21;0.93;;;0.30;;
72949;SDS011;64868;45.710;9.590;2022-11-04T06:19:47;0.70;;;0.15;;
72949;SDS011;64868;45.710;9.590;2022-11-04T06:22:16;0.82;;;0.30;;
72949;SDS011;64868;45.710;9.590;2022-11-04T06:24:41;1.25;;;0.20;;
72949;SDS011;64868;45.710;9.590;2022-11-04T06:27:07;2.60;;;0.30;;
72949;SDS011;64868;45.710;9.590;2022-11-04T06:29:33;3.10;;;0.50;;
72949;SDS011;64868;45.710;9.590;2022-11-04T06:32:10;1.27;;;0.43;;
72949;SDS011;64868;45.710;9.590;2022-11-04T06:34:38;0.98;;;0.20;;
72949;SDS011;64868;45.710;9.590;2022-11-04T06:37:03;0.57;;;0.10;;
72949;SDS011;64868;45.710;9.590;2022-11-04T06:39:29;1.13;;;0.20;;
72949;SDS011;64868;45.710;9.590;2022-11-04T06:41:54;0.60;;;0.17;;
72949;SDS011;64868;45.710;9.590;2022-11-04T06:44:20;0.57;;;0.10;;
72949;SDS011;64868;45.710;9.590;2022-11-04T06:46:45;0.60;;;0.20;;
72949;SDS011;64868;45.710;9.590;2022-11-04T06:49:11;2.25;;;0.30;;
72949;SDS011;64868;45.710;9.590;2022-11-04T06:51:37;0.75;;;0.20;;
72949;SDS011;64868;45.710;9.590;2022-11-04T06:54:02;2.38;;;0.32;;
72949;SDS011;64868;45.710;9.590;2022-11-04T06:56:27;1.25;;;0.20;;
72949;SDS011;64868;45.710;9.590;2022-11-04T06:58:53;1.13;;;0.20;;
72949;SDS011;64868;45.710;9.590;2022-11-04T07:01:19;2.97;;;0.40;;
72949;SDS011;64868;45.710;9.590;2022-11-04T07:03:47;1.02;;;0.20;;
72949;SDS011;64868;45.710;9.590;2022-11-04T07:06:13;1.02;;;0.30;;
72949;SDS011;64868;45.710;9.590;2022-11-04T07:08:38;0.53;;;0.10;;
72949;SDS011;64868;45.710;9.590;2022-11-04T07:11:06;4.22;;;0.40;;
72949;SDS011;64868;45.710;9.590;2022-11-04T07:13:31;4.15;;;0.55;;
72949;SDS011;64868;45.710;9.590;2022-11-04T07:15:56;0.90;;;0.22;;
72949;SDS011;64868;45.710;9.590;2022-11-04T07:18:22;0.45;;;0.13;;
72949;SDS011;64868;45.710;9.590;2022-11-04T07:20:47;2.00;;;0.13;;
72949;SDS011;64868;45.710;9.590;2022-11-04T07:23:12;1.42;;;0.13;;
72949;SDS011;64868;45.710;9.590;2022-11-04T07:25:37;2.43;;;0.10;;
72949;SDS011;64868;45.710;9.590;2022-11-04T07:28:03;0.43;;;0.10;;
72949;SDS011;64868;45.710;9.590;2022-11-04T07:30:28;0.47;;;0.20;;
72949;SDS011;64868;45.710;9.590;2022-11-04T07:32:55;1.30;;;0.22;;
72949;SDS011;64868;45.710;9.590;2022-11-04T07:35:20;2.70;;;0.40;;
72949;SDS011;64868;45.710;9.590;2022-11-04T07:37:45;2.87;;;0.47;;
72949;SDS011;64868;45.710;9.590;2022-11-04T07:40:10;4.07;;;1.10;;
72949;SDS011;64868;45.710;9.590;2022-11-04T07:42:36;4.82;;;0.73;;
72949;SDS011;64868;45.710;9.590;2022-11-04T07:45:01;3.00;;;0.50;;
72949;SDS011;64868;45.710;9.590;2022-11-04T07:47:29;2.60;;;0.40;;
72949;SDS011;64868;45.710;9.590;2022-11-04T07:49:55;2.42;;;0.50;;
72949;SDS011;64868;45.710;9.590;2022-11-04T07:52:20;3.08;;;0.28;;
72949;SDS011;64868;45.710;9.590;2022-11-04T07:54:45;1.52;;;0.32;;
72949;SDS011;64868;45.710;9.590;2022-11-04T07:57:10;1.50;;;0.30;;
72949;SDS011;64868;45.710;9.590;2022-11-04T07:59:36;4.90;;;0.40;;
72949;SDS011;64868;45.710;9.590;2022-11-04T08:02:01;0.50;;;0.10;;
72949;SDS011;64868;45.710;9.590;2022-11-04T08:04:26;2.00;;;0.30;;
72949;SDS011;64868;45.710;9.590;2022-11-04T08:06:52;2.10;;;0.40;;
72949;SDS011;64868;45.710;9.590;2022-11-04T08:09:17;1.13;;;0.20;;
72949;SDS011;64868;45.710;9.590;2022-11-04T08:11:42;1.90;;;0.20;;
72949;SDS011;64868;45.710;9.590;2022-11-04T08:14:07;1.05;;;0.20;;
72949;SDS011;64868;45.710;9.590;2022-11-04T08:16:33;0.13;;;0.10;;
72949;SDS011;64868;45.710;9.590;2022-11-04T08:18:58;1.60;;;0.30;;
72949;SDS011;64868;45.710;9.590;2022-11-04T08:21:26;1.67;;;0.20;;
72949;SDS011;64868;45.710;9.590;2022-11-04T08:23:51;1.10;;;0.22;;
72949;SDS011;64868;45.710;9.590;2022-11-04T08:26:17;0.63;;;0.20;;
72949;SDS011;64868;45.710;9.590;2022-11-04T08:28:43;1.33;;;0.40;;
72949;SDS011;64868;45.710;9.590;2022-11-04T08:31:10;2.23;;;0.40;;
72949;SDS011;64868;45.710;9.590;2022-11-04T08:33:36;3.40;;;0.63;;
72949;SDS011;64868;45.710;9.590;2022-11-04T08:36:06;2.65;;;0.60;;
72949;SDS011;64868;45.710;9.590;2022-11-04T08:38:33;3.63;;;0.60;;
72949;SDS011;64868;45.710;9.590;2022-11-04T08:40:58;1.70;;;0.30;;
72949;SDS011;64868;45.710;9.590;2022-11-04T08:43:24;2.30;;;0.43;;
72949;SDS011;64868;45.710;9.590;2022-11-04T08:45:50;4.53;;;0.63;;
72949;SDS011;64868;45.710;9.590;2022-11-04T08:48:15;2.63;;;0.45;;
72949;SDS011;64868;45.710;9.590;2022-11-04T08:50:41;1.63;;;0.30;;
72949;SDS011;64868;45.710;9.590;2022-11-04T08:53:07;2.38;;;0.50;;
72949;SDS011;64868;45.710;9.590;2022-11-04T08:55:33;4.07;;;1.30;;
72949;SDS011;64868;45.710;9.590;2022-11-04T08:57:59;4.20;;;1.23;;
72949;SDS011;64868;45.710;9.590;2022-11-04T09:00:24;8.75;;;1.73;;
72949;SDS011;64868;45.710;9.590;2022-11-04T09:02:50;4.47;;;0.70;;
72949;SDS011;64868;45.710;9.590;2022-11-04T09:05:16;3.50;;;0.60;;
72949;SDS011;64868;45.710;9.590;2022-11-04T09:07:42;5.90;;;2.03;;
72949;SDS011;64868;45.710;9.590;2022-11-04T09:10:07;24.87;;;11.77;;
72949;SDS011;64868;45.710;9.590;2022-11-04T09:12:33;13.98;;;6.13;;
72949;SDS011;64868;45.710;9.590;2022-11-04T09:14:58;13.57;;;6.23;;
72949;SDS011;64868;45.710;9.590;2022-11-04T09:17:23;5.15;;;1.23;;
72949;SDS011;64868;45.710;9.590;2022-11-04T09:19:49;3.30;;;0.50;;
72949;SDS011;64868;45.710;9.590;2022-11-04T09:22:15;3.08;;;0.52;;
72949;SDS011;64868;45.710;9.590;2022-11-04T09:24:40;2.15;;;0.35;;
72949;SDS011;64868;45.710;9.590;2022-11-04T09:27:05;3.53;;;0.70;;
72949;SDS011;64868;45.710;9.590;2022-11-04T09:29:30;6.55;;;2.15;;
72949;SDS011;64868;45.710;9.590;2022-11-04T09:31:58;2.45;;;0.70;;
72949;SDS011;64868;45.710;9.590;2022-11-04T09:34:23;1.77;;;0.30;;
72949;SDS011;64868;45.710;9.590;2022-11-04T09:36:48;2.53;;;0.30;;
72949;SDS011;64868;45.710;9.590;2022-11-04T09:39:13;2.00;;;0.40;;
72949;SDS011;64868;45.710;9.590;2022-11-04T09:46:32;0.77;;;0.37;;
72949;SDS011;64868;45.710;9.590;2022-11-04T09:48:57;1.15;;;0.40;;
72949;SDS011;64868;45.710;9.590;2022-11-04T09:51:25;1.95;;;0.45;;
72949;SDS011;64868;45.710;9.590;2022-11-04T09:53:52;1.45;;;0.35;;
72949;SDS011;64868;45.710;9.590;2022-11-04T09:56:22;2.15;;;0.47;;
72949;SDS011;64868;45.710;9.590;2022-11-04T09:58:49;1.27;;;0.40;;
72949;SDS011;64868;45.710;9.590;2022-11-04T10:06:30;1.25;;;0.40;;
72949;SDS011;64868;45.710;9.590;2022-11-04T10:09:05;2.63;;;0.50;;
72949;SDS011;64868;45.710;9.590;2022-11-04T10:11:38;0.93;;;0.22;;
72949;SDS011;64868;45.710;9.590;2022-11-04T10:19:17;4.25;;;0.90;;
72949;SDS011;64868;45.710;9.590;2022-11-04T10:26:43;1.17;;;0.32;;
72949;SDS011;64868;45.710;9.590;2022-11-04T10:29:11;3.67;;;0.32;;
72949;SDS011;64868;45.710;9.590;2022-11-04T10:31:37;2.35;;;0.35;;
72949;SDS011;64868;45.710;9.590;2022-11-04T10:34:07;0.88;;;0.32;;
72949;SDS011;64868;45.710;9.590;2022-11-04T10:36:36;1.33;;;0.38;;
72949;SDS011;64868;45.710;9.590;2022-11-04T10:39:02;1.73;;;0.40;;
72949;SDS011;64868;45.710;9.590;2022-11-04T10:41:30;2.42;;;0.30;;
72949;SDS011;64868;45.710;9.590;2022-11-04T10:48:56;0.77;;;0.27;;
72949;SDS011;64868;45.710;9.590;2022-11-04T10:51:22;4.43;;;0.47;;
72949;SDS011;64868;45.710;9.590;2022-11-04T10:53:55;1.33;;;0.32;;
72949;SDS011;64868;45.710;9.590;2022-11-04T11:01:22;1.60;;;0.40;;
72949;SDS011;64868;45.710;9.590;2022-11-04T11:03:47;3.15;;;0.77;;
72949;SDS011;64868;45.710;9.590;2022-11-04T11:06:34;3.40;;;0.30;;
72949;SDS011;64868;45.710;9.590;2022-11-04T11:08:59;7.88;;;0.35;;
72949;SDS011;64868;45.710;9.590;2022-11-04T11:19:55;4.13;;;0.60;;
72949;SDS011;64868;45.710;9.590;2022-11-04T11:27:44;2.47;;;0.40;;
72949;SDS011;64868;45.710;9.590;2022-11-04T11:30:18;1.65;;;0.30;;
72949;SDS011;64868;45.710;9.590;2022-11-04T11:32:44;2.33;;;0.30;;
72949;SDS011;64868;45.710;9.590;2022-11-04T11:35:14;0.93;;;0.32;;
72949;SDS011;64868;45.710;9.590;2022-11-04T11:37:40;3.45;;;0.63;;
72949;SDS011;64868;45.710;9.590;2022-11-04T11:40:22;3.00;;;0.43;;
72949;SDS011;64868;45.710;9.590;2022-11-04T11:42:48;2.00;;;0.40;;
72949;SDS011;64868;45.710;9.590;2022-11-04T11:45:16;2.15;;;0.52;;
72949;SDS011;64868;45.710;9.590;2022-11-04T11:47:44;1.38;;;0.38;;
72949;SDS011;64868;45.710;9.590;2022-11-04T11:52:43;1.05;;;0.22;;
72949;SDS011;64868;45.710;9.590;2022-11-04T12:00:08;1.08;;;0.30;;
72949;SDS011;64868;45.710;9.590;2022-11-04T12:05:14;2.90;;;0.40;;
72949;SDS011;64868;45.710;9.590;2022-11-04T12:10:29;1.50;;;0.30;;
72949;SDS011;64868;45.710;9.590;2022-11-04T12:18:07;1.27;;;0.30;;
72949;SDS011;64868;45.710;9.590;2022-11-04T12:36:18;0.73;;;0.20;;
72949;SDS011;64868;45.710;9.590;2022-11-04T12:39:01;0.35;;;0.13;;
72949;SDS011;64868;45.710;9.590;2022-11-04T12:44:14;1.52;;;0.30;;
72949;SDS011;64868;45.710;9.590;2022-11-04T12:51:43;1.63;;;0.30;;
72949;SDS011;64868;45.710;9.590;2022-11-04T12:54:28;3.72;;;0.28;;
72949;SDS011;64868;45.710;9.590;2022-11-04T12:57:43;2.38;;;0.20;;
72949;SDS011;64868;45.710;9.590;2022-11-04T13:00:03;1.98;;;0.28;;
72949;SDS011;64868;45.710;9.590;2022-11-04T13:02:42;2.00;;;0.20;;
72949;SDS011;64868;45.710;9.590;2022-11-04T13:10:26;2.28;;;0.47;;
72949;SDS011;64868;45.710;9.590;2022-11-04T13:12:54;2.22;;;0.45;;
72949;SDS011;64868;45.710;9.590;2022-11-04T13:15:27;2.42;;;0.22;;
72949;SDS011;64868;45.710;9.590;2022-11-04T13:17:56;1.15;;;0.20;;
72949;SDS011;64868;45.710;9.590;2022-11-04T13:20:38;2.28;;;0.50;;
72949;SDS011;64868;45.710;9.590;2022-11-04T13:23:07;0.47;;;0.20;;
72949;SDS011;64868;45.710;9.590;2022-11-04T13:25:41;1.25;;;0.28;;
72949;SDS011;64868;45.710;9.590;2022-11-04T13:28:17;0.82;;;0.20;;
72949;SDS011;64868;45.710;9.590;2022-11-04T13:38:41;1.70;;;0.20;;
72949;SDS011;64868;45.710;9.590;2022-11-04T13:44:04;3.13;;;0.90;;
72949;SDS011;64868;45.710;9.590;2022-11-04T13:46:37;3.65;;;0.75;;
72949;SDS011;64868;45.710;9.590;2022-11-04T13:49:05;4.82;;;1.50;;
72949;SDS011;64868;45.710;9.590;2022-11-04T13:59:29;4.30;;;1.17;;
72949;SDS011;64868;45.710;9.590;2022-11-04T14:02:21;3.83;;;1.00;;
72949;SDS011;64868;45.710;9.590;2022-11-04T14:04:46;2.25;;;0.50;;
72949;SDS011;64868;45.710;9.590;2022-11-04T14:07:12;1.38;;;0.20;;
72949;SDS011;64868;45.710;9.590;2022-11-04T14:14:43;2.17;;;0.43;;
72949;SDS011;64868;45.710;9.590;2022-11-04T14:27:43;6.40;;;1.02;;
72949;SDS011;64868;45.710;9.590;2022-11-04T14:32:55;6.90;;;0.57;;
72949;SDS011;64868;45.710;9.590;2022-11-04T14:35:41;2.45;;;0.47;;
72949;SDS011;64868;45.710;9.590;2022-11-04T14:38:16;0.88;;;0.30;;
72949;SDS011;64868;45.710;9.590;2022-11-04T14:40:50;1.88;;;0.40;;
72949;SDS011;64868;45.710;9.590;2022-11-04T14:43:18;2.30;;;0.30;;
72949;SDS011;64868;45.710;9.590;2022-11-04T14:45:47;5.93;;;0.60;;
72949;SDS011;64868;45.710;9.590;2022-11-04T14:48:16;3.17;;;0.38;;
72949;SDS011;64868;45.710;9.590;2022-11-04T14:50:44;2.38;;;0.50;;
72949;SDS011;64868;45.710;9.590;2022-11-04T14:53:11;4.97;;;0.60;;
72949;SDS011;64868;45.710;9.590;2022-11-04T14:55:38;2.05;;;0.45;;
72949;SDS011;64868;45.710;9.590;2022-11-04T14:58:19;1.87;;;0.37;;
72949;SDS011;64868;45.710;9.590;2022-11-04T15:05:58;3.70;;;0.55;;
72949;SDS011;64868;45.710;9.590;2022-11-04T15:08:34;2.45;;;0.45;;
72949;SDS011;64868;45.710;9.590;2022-11-04T15:11:19;2.33;;;0.50;;
72949;SDS011;64868;45.710;9.590;2022-11-04T15:14:22;2.58;;;0.40;;
72949;SDS011;64868;45.710;9.590;2022-11-04T15:16:51;1.88;;;0.50;;
72949;SDS011;64868;45.710;9.590;2022-11-04T15:19:22;2.92;;;0.70;;
72949;SDS011;64868;45.710;9.590;2022-11-04T15:21:49;3.38;;;0.60;;
72949;SDS011;64868;45.710;9.590;2022-11-04T15:24:15;5.60;;;0.70;;
72949;SDS011;64868;45.710;9.590;2022-11-04T15:27:01;4.25;;;0.70;;
72949;SDS011;64868;45.710;9.590;2022-11-04T15:29:27;4.18;;;0.70;;
72949;SDS011;64868;45.710;9.590;2022-11-04T15:31:53;3.37;;;0.80;;
72949;SDS011;64868;45.710;9.590;2022-11-04T15:34:19;4.40;;;0.82;;
72949;SDS011;64868;45.710;9.590;2022-11-04T15:36:45;4.60;;;0.70;;
72949;SDS011;64868;45.710;9.590;2022-11-04T15:39:20;6.25;;;1.00;;
72949;SDS011;64868;45.710;9.590;2022-11-04T15:41:46;7.13;;;1.48;;
72949;SDS011;64868;45.710;9.590;2022-11-04T15:44:31;4.38;;;1.02;;
72949;SDS011;64868;45.710;9.590;2022-11-04T15:46:58;5.10;;;0.88;;
72949;SDS011;64868;45.710;9.590;2022-11-04T15:49:24;5.55;;;1.02;;
72949;SDS011;64868;45.710;9.590;2022-11-04T15:51:51;5.53;;;0.98;;
72949;SDS011;64868;45.710;9.590;2022-11-04T15:54:26;6.63;;;1.05;;
72949;SDS011;64868;45.710;9.590;2022-11-04T15:56:53;5.55;;;1.30;;
72949;SDS011;64868;45.710;9.590;2022-11-04T15:59:21;7.63;;;1.08;;
72949;SDS011;64868;45.710;9.590;2022-11-04T16:01:48;3.90;;;1.05;;
72949;SDS011;64868;45.710;9.590;2022-11-04T16:04:14;5.82;;;1.33;;
72949;SDS011;64868;45.710;9.590;2022-11-04T16:06:40;11.48;;;1.52;;
72949;SDS011;64868;45.710;9.590;2022-11-04T16:11:38;7.60;;;1.35;;
72949;SDS011;64868;45.710;9.590;2022-11-04T16:14:13;7.28;;;1.45;;
72949;SDS011;64868;45.710;9.590;2022-11-04T16:16:39;4.90;;;1.40;;
72949;SDS011;64868;45.710;9.590;2022-11-04T16:19:28;4.25;;;1.27;;
72949;SDS011;64868;45.710;9.590;2022-11-04T16:22:01;7.40;;;1.20;;
72949;SDS011;64868;45.710;9.590;2022-11-04T16:24:30;5.07;;;1.10;;
72949;SDS011;64868;45.710;9.590;2022-11-04T16:26:57;4.70;;;1.30;;
72949;SDS011;64868;45.710;9.590;2022-11-04T16:29:26;7.68;;;1.40;;
72949;SDS011;64868;45.710;9.590;2022-11-04T16:34:49;4.38;;;1.20;;
72949;SDS011;64868;45.710;9.590;2022-11-04T16:37:15;5.28;;;1.30;;
72949;SDS011;64868;45.710;9.590;2022-11-04T16:39:42;6.10;;;1.65;;
72949;SDS011;64868;45.710;9.590;2022-11-04T16:42:08;3.95;;;1.10;;
72949;SDS011;64868;45.710;9.590;2022-11-04T16:44:33;6.03;;;1.35;;
72949;SDS011;64868;45.710;9.590;2022-11-04T16:46:59;5.55;;;1.02;;
72949;SDS011;64868;45.710;9.590;2022-11-04T16:49:24;5.18;;;1.50;;
72949;SDS011;64868;45.710;9.590;2022-11-04T16:51:52;5.60;;;1.60;;
72949;SDS011;64868;45.710;9.590;2022-11-04T16:54:18;5.38;;;1.50;;
72949;SDS011;64868;45.710;9.590;2022-11-04T16:59:30;8.00;;;1.95;;
72949;SDS011;64868;45.710;9.590;2022-11-04T17:01:56;7.68;;;1.98;;
72949;SDS011;64868;45.710;9.590;2022-11-04T17:04:40;5.82;;;2.03;;
72949;SDS011;64868;45.710;9.590;2022-11-04T17:07:06;9.43;;;2.83;;
72949;SDS011;64868;45.710;9.590;2022-11-04T17:09:31;7.03;;;2.63;;
72949;SDS011;64868;45.710;9.590;2022-11-04T17:14:41;5.55;;;2.00;;
72949;SDS011;64868;45.710;9.590;2022-11-04T17:17:08;5.63;;;2.05;;
72949;SDS011;64868;45.710;9.590;2022-11-04T17:22:19;5.53;;;2.08;;
72949;SDS011;64868;45.710;9.590;2022-11-04T17:24:44;6.72;;;2.35;;
72949;SDS011;64868;45.710;9.590;2022-11-04T17:27:09;7.15;;;2.22;;
72949;SDS011;64868;45.710;9.590;2022-11-04T17:29:34;6.07;;;2.00;;
72949;SDS011;64868;45.710;9.590;2022-11-04T17:32:02;7.13;;;2.13;;
72949;SDS011;64868;45.710;9.590;2022-11-04T17:34:29;5.53;;;2.03;;
72949;SDS011;64868;45.710;9.590;2022-11-04T17:36:55;6.45;;;2.20;;
72949;SDS011;64868;45.710;9.590;2022-11-04T17:39:40;6.38;;;2.45;;
72949;SDS011;64868;45.710;9.590;2022-11-04T17:42:16;7.63;;;2.10;;
72949;SDS011;64868;45.710;9.590;2022-11-04T17:45:20;7.78;;;2.35;;
72949;SDS011;64868;45.710;9.590;2022-11-04T17:47:45;8.20;;;2.47;;
72949;SDS011;64868;45.710;9.590;2022-11-04T17:50:30;6.75;;;2.42;;
72949;SDS011;64868;45.710;9.590;2022-11-04T17:52:56;7.93;;;2.85;;
72949;SDS011;64868;45.710;9.590;2022-11-04T17:55:22;7.53;;;2.55;;
72949;SDS011;64868;45.710;9.590;2022-11-04T17:57:48;8.00;;;3.03;;
72949;SDS011;64868;45.710;9.590;2022-11-04T18:00:13;8.82;;;2.70;;
72949;SDS011;64868;45.710;9.590;2022-11-04T18:02:39;7.85;;;2.50;;
72949;SDS011;64868;45.710;9.590;2022-11-04T18:05:06;6.80;;;2.72;;
72949;SDS011;64868;45.710;9.590;2022-11-04T18:07:32;7.55;;;2.55;;
72949;SDS011;64868;45.710;9.590;2022-11-04T18:15:26;7.53;;;2.67;;
72949;SDS011;64868;45.710;9.590;2022-11-04T18:17:52;8.18;;;2.35;;